Winona, Texas
Current Conditions -  °F | °C
As of 4:30 PM on Saturday 20 Dec 2014 (Local Time) from KTYR Reporting Station
Scattered Clouds Scattered Clouds  
Wind Chill: 52°   Ceiling: Unl
Heat Index: 52°   Visibility: 10mi
Dew Point: 42°   Wind: 5mph
Humidity: 69%   Direction: 80°E
Pressure: 30.17"   Gusts: NA
Location:  32.49°N, 95.17°W
Report Text: KTYR 202230Z 08004KT 10SM SCT023 11/06 A3017 RMK AO2 T01110056
Loading
Personal Weather Stations






























Interactive Weather Map New forecast layout! Learn more

10-Day Weather Forecast

Advertisements
Track Severe Weather on mobile